Time;durP1;ratioP1;P1;durP2;ratioP2;P2;SDS_P1;SDS_P2;PMS_P1;PMS_P2;Temp;Humidity;BMP_temperature;BMP_pressure;BME280_temperature;BME280_humidity;BME280_pressure;Samples;Min_cycle;Max_cycle;Signal;HPM_P1;HPM_P2
2022/01/28 00:00:05;;;;;;;21.85;5.50;;;6.00;99.90;;;;;;6224573;23;20347;-54
2022/01/28 00:05:04;;;;;;;26.85;5.65;;;6.10;99.90;;;;;;6215649;23;20359;-52
2022/01/28 00:07:31;;;;;;;24.90;5.47;;;6.00;99.90;;;;;;6214406;23;20837;-53
2022/01/28 00:09:57;;;;;;;22.08;5.97;;;6.00;99.90;;;;;;6214418;23;20359;-53
2022/01/28 00:12:27;;;;;;;24.38;6.28;;;6.00;99.90;;;;;;6213794;23;20361;-53
2022/01/28 00:15:13;;;;;;;24.98;5.60;;;5.90;99.90;;;;;;6211567;23;20355;-53
2022/01/28 00:18:13;;;;;;;26.73;5.93;;;6.00;99.90;;;;;;6213267;23;21052;-54
2022/01/28 00:39:37;;;;;;;22.15;5.70;;;5.80;99.90;;;;;;6216060;23;20390;-54
2022/01/28 00:42:03;;;;;;;18.88;4.43;;;5.80;99.90;;;;;;6215301;23;20344;-51
2022/01/28 00:44:29;;;;;;;20.95;5.05;;;5.80;99.90;;;;;;6214277;23;20375;-52
2022/01/28 00:46:55;;;;;;;18.33;4.80;;;5.80;99.90;;;;;;6214596;23;20356;-49
2022/01/28 00:49:20;;;;;;;18.33;4.45;;;5.80;99.90;;;;;;6213422;23;20741;-50
2022/01/28 00:51:46;;;;;;;18.17;4.83;;;5.80;99.90;;;;;;6214447;23;20368;-51
2022/01/28 00:54:12;;;;;;;18.98;4.03;;;5.80;99.90;;;;;;6214156;23;20712;-51
2022/01/28 00:56:37;;;;;;;16.37;4.53;;;5.80;99.90;;;;;;6210603;23;20375;-51
2022/01/28 00:59:03;;;;;;;21.17;4.50;;;5.70;99.90;;;;;;6209407;23;20773;-53
2022/01/28 01:01:29;;;;;;;19.88;4.20;;;5.70;99.90;;;;;;6209836;23;20344;-53
2022/01/28 01:03:59;;;;;;;20.52;4.78;;;5.70;99.90;;;;;;6210863;23;20406;-56
2022/01/28 01:06:25;;;;;;;19.45;4.63;;;5.70;99.90;;;;;;6210497;23;20360;-55
2022/01/28 01:08:51;;;;;;;20.40;4.90;;;5.60;99.90;;;;;;6212914;23;20718;-52
2022/01/28 01:11:20;;;;;;;21.73;4.80;;;5.70;99.90;;;;;;6211920;23;20362;-58
2022/01/28 01:13:46;;;;;;;23.80;5.65;;;5.60;99.90;;;;;;6211762;23;20355;-55
2022/01/28 01:16:14;;;;;;;27.35;5.47;;;5.60;99.90;;;;;;6210982;23;20364;-55
2022/01/28 01:18:49;;;;;;;22.43;5.13;;;5.60;99.90;;;;;;6214253;23;20426;-56
2022/01/28 01:21:22;;;;;;;28.25;5.82;;;5.60;99.90;;;;;;6214209;23;20738;-53
2022/01/28 01:23:53;;;;;;;21.67;5.13;;;5.60;99.90;;;;;;6213811;23;20440;-53
2022/01/28 01:26:26;;;;;;;26.42;5.93;;;5.70;99.90;;;;;;6213152;23;20790;-52
2022/01/28 01:28:52;;;;;;;25.67;5.90;;;5.70;99.90;;;;;;6210877;23;20352;-51
2022/01/28 01:31:19;;;;;;;28.73;6.03;;;5.70;99.90;;;;;;6211807;23;20872;-53
2022/01/28 01:33:54;;;;;;;23.00;5.57;;;5.70;99.90;;;;;;6211675;23;20363;-55
2022/01/28 01:36:21;;;;;;;28.20;6.25;;;5.60;99.90;;;;;;6210696;23;20382;-56
2022/01/28 01:38:46;;;;;;;24.30;5.65;;;5.70;99.90;;;;;;6211846;23;20761;-54
2022/01/28 01:41:19;;;;;;;26.93;5.80;;;5.60;99.90;;;;;;6210593;23;20348;-52
2022/01/28 01:46:47;;;;;;;24.08;5.95;;;5.60;99.90;;;;;;6223380;23;20369;-53
2022/01/28 01:52:06;;;;;;;23.53;5.80;;;5.60;99.90;;;;;;6213724;23;20450;-54
2022/01/28 01:54:37;;;;;;;25.45;5.43;;;5.70;99.90;;;;;;6214572;23;20359;-54
2022/01/28 01:57:04;;;;;;;21.57;5.40;;;5.70;99.90;;;;;;6214349;23;20367;-56
2022/01/28 01:59:29;;;;;;;29.48;6.28;;;5.70;99.90;;;;;;6214199;23;20402;-53
2022/01/28 02:01:56;;;;;;;24.97;5.40;;;5.70;99.90;;;;;;6211948;23;20638;-54
2022/01/28 02:04:22;;;;;;;22.90;5.03;;;5.70;99.90;;;;;;6213732;23;20359;-58
2022/01/28 02:06:48;;;;;;;25.25;5.88;;;5.70;99.90;;;;;;6214081;23;20687;-53
2022/01/28 02:09:13;;;;;;;21.40;5.40;;;5.80;99.90;;;;;;6215020;23;20363;-55
2022/01/28 02:11:42;;;;;;;24.48;5.90;;;5.80;99.90;;;;;;6213223;23;20398;-56
2022/01/28 02:14:08;;;;;;;19.90;5.05;;;5.80;99.90;;;;;;6212760;23;20423;-55
2022/01/28 02:16:34;;;;;;;21.67;5.65;;;5.80;99.90;;;;;;6212265;23;20371;-58
2022/01/28 02:19:00;;;;;;;23.80;5.00;;;5.70;99.90;;;;;;6212506;23;20356;-55
2022/01/28 02:21:26;;;;;;;21.90;5.13;;;5.70;99.90;;;;;;6211761;23;20658;-57
2022/01/28 02:23:58;;;;;;;20.17;5.53;;;5.60;99.90;;;;;;6211901;23;20351;-52
2022/01/28 02:26:23;;;;;;;21.83;5.25;;;5.70;99.90;;;;;;6211863;23;20379;-55
2022/01/28 02:28:54;;;;;;;24.00;5.57;;;5.70;99.90;;;;;;6211533;23;20367;-50
2022/01/28 02:31:26;;;;;;;23.75;5.55;;;5.70;99.90;;;;;;6212478;23;20363;-54
2022/01/28 02:33:55;;;;;;;22.90;5.25;;;5.70;99.90;;;;;;6213718;23;20630;-51
2022/01/28 02:36:20;;;;;;;23.73;5.32;;;5.70;99.90;;;;;;6211496;23;20375;-52
2022/01/28 02:38:46;;;;;;;23.88;5.57;;;5.70;99.90;;;;;;6211675;23;20436;-57
2022/01/28 02:41:12;;;;;;;26.67;5.72;;;5.70;99.90;;;;;;6212316;23;20340;-56
2022/01/28 02:43:49;;;;;;;23.10;5.23;;;5.60;99.90;;;;;;6211167;23;20438;-57
2022/01/28 02:46:16;;;;;;;22.80;5.30;;;5.50;99.90;;;;;;6210416;23;20355;-55
2022/01/28 02:48:53;;;;;;;23.30;5.05;;;5.50;99.90;;;;;;6209907;23;20378;-54
2022/01/28 02:51:21;;;;;;;22.05;4.72;;;5.50;99.90;;;;;;6210717;23;20356;-58
2022/01/28 02:53:54;;;;;;;17.52;4.18;;;5.50;99.90;;;;;;6210252;23;20355;-53
2022/01/28 02:56:24;;;;;;;24.35;4.70;;;5.50;99.90;;;;;;6205787;23;20433;-54
2022/01/28 02:58:50;;;;;;;23.95;5.32;;;5.50;99.90;;;;;;6207703;23;20355;-56
2022/01/28 03:01:17;;;;;;;22.35;5.57;;;5.60;99.90;;;;;;6209106;23;20340;-53
2022/01/28 03:03:45;;;;;;;19.70;5.10;;;5.60;99.90;;;;;;6209307;23;20480;-52
2022/01/28 03:06:12;;;;;;;27.17;6.05;;;5.60;99.90;;;;;;6209568;23;20423;-57
2022/01/28 03:08:42;;;;;;;23.40;5.03;;;5.60;99.90;;;;;;6210756;23;20458;-53
2022/01/28 03:11:41;;;;;;;29.75;5.72;;;5.60;99.90;;;;;;6209866;23;20359;-53
2022/01/28 03:14:21;;;;;;;22.08;5.43;;;5.70;99.90;;;;;;6211268;23;20387;-55
2022/01/28 03:17:07;;;;;;;24.73;5.80;;;5.70;99.90;;;;;;6209808;23;20371;-55
2022/01/28 03:19:46;;;;;;;27.42;5.97;;;5.70;99.90;;;;;;6211779;23;20371;-51
2022/01/28 03:22:11;;;;;;;28.08;6.38;;;5.70;99.90;;;;;;6211672;23;20367;-56
2022/01/28 03:24:38;;;;;;;30.40;6.25;;;5.70;99.90;;;;;;6211970;23;20374;-55
2022/01/28 03:27:10;;;;;;;27.02;5.78;;;5.70;99.90;;;;;;6212163;23;20409;-53
2022/01/28 03:29:36;;;;;;;23.13;6.00;;;5.70;99.90;;;;;;6213601;23;20772;-55
2022/01/28 03:32:01;;;;;;;22.90;5.70;;;5.80;99.90;;;;;;6211806;23;20439;-54
2022/01/28 03:34:27;;;;;;;22.93;5.57;;;5.80;99.90;;;;;;6211766;23;20367;-56
2022/01/28 03:36:53;;;;;;;27.93;5.80;;;5.80;99.90;;;;;;6211864;23;20403;-54
2022/01/28 03:39:19;;;;;;;25.33;5.07;;;5.70;99.90;;;;;;6213297;23;20355;-55
2022/01/28 03:41:44;;;;;;;21.70;5.20;;;5.70;99.90;;;;;;6212973;23;20351;-55
2022/01/28 03:44:10;;;;;;;22.50;4.90;;;5.70;99.90;;;;;;6212579;23;20375;-53
2022/01/28 03:46:35;;;;;;;21.27;5.33;;;5.70;99.90;;;;;;6211365;23;20399;-54
2022/01/28 03:49:02;;;;;;;20.77;5.18;;;5.60;99.90;;;;;;6210843;23;20351;-55
2022/01/28 03:51:28;;;;;;;22.95;5.03;;;5.60;99.90;;;;;;6209407;23;20358;-53
2022/01/28 03:53:54;;;;;;;22.63;5.18;;;5.60;99.90;;;;;;6206634;23;20603;-54
2022/01/28 03:56:19;;;;;;;23.25;5.10;;;5.60;99.90;;;;;;6208117;23;20531;-54
2022/01/28 03:58:45;;;;;;;23.63;4.83;;;5.50;99.90;;;;;;6209453;23;20340;-55
2022/01/28 04:01:21;;;;;;;20.17;4.80;;;5.50;99.90;;;;;;6212668;23;20340;-55
2022/01/28 04:11:46;;;;;;;24.63;5.70;;;5.50;99.90;;;;;;6214437;23;20347;-55
2022/01/28 04:14:18;;;;;;;21.95;5.50;;;5.40;99.90;;;;;;6213852;23;20741;-56
2022/01/28 04:19:28;;;;;;;17.00;4.82;;;5.50;99.90;;;;;;6212959;23;20440;-57
2022/01/28 04:21:54;;;;;;;21.77;5.10;;;5.50;99.90;;;;;;6212279;23;20376;-55
2022/01/28 04:24:19;;;;;;;22.55;5.75;;;5.50;99.90;;;;;;6214625;23;20366;-55
2022/01/28 04:26:45;;;;;;;24.58;5.55;;;5.50;99.90;;;;;;6213979;23;20386;-57
2022/01/28 04:29:13;;;;;;;24.42;5.55;;;5.50;99.90;;;;;;6211440;23;20365;-57
2022/01/28 04:31:42;;;;;;;22.45;5.18;;;5.50;99.90;;;;;;6210525;23;20366;-53
2022/01/28 04:34:09;;;;;;;21.35;5.28;;;5.50;99.90;;;;;;6209542;23;20666;-54
2022/01/28 04:36:40;;;;;;;22.55;5.32;;;5.50;99.90;;;;;;6206727;23;20375;-55
2022/01/28 04:39:15;;;;;;;20.60;5.43;;;5.50;99.90;;;;;;6207799;23;20352;-53
2022/01/28 04:41:57;;;;;;;20.05;5.05;;;5.50;99.90;;;;;;6206170;23;20351;-54
2022/01/28 04:44:32;;;;;;;21.45;5.15;;;5.50;99.90;;;;;;6206438;23;20372;-55
2022/01/28 04:47:13;;;;;;;23.90;5.45;;;5.50;99.90;;;;;;6208787;23;20809;-56
2022/01/28 04:55:02;;;;;;;20.73;5.17;;;5.50;99.90;;;;;;6220225;23;20867;-56
2022/01/28 05:00:40;;;;;;;22.73;4.95;;;5.40;99.90;;;;;;6219860;23;20545;-54
2022/01/28 05:06:18;;;;;;;23.37;5.87;;;5.40;99.90;;;;;;6206939;23;20424;-55
2022/01/28 05:09:09;;;;;;;16.27;4.45;;;5.40;99.90;;;;;;6209366;23;20443;-53
2022/01/28 05:11:51;;;;;;;19.00;4.60;;;5.50;99.90;;;;;;6211148;23;20380;-57
2022/01/28 05:14:28;;;;;;;18.65;4.82;;;5.50;99.90;;;;;;6214195;23;20746;-55
2022/01/28 05:28:04;;;;;;;19.43;4.60;;;5.50;99.90;;;;;;6144289;23;20591;-52
2022/01/28 05:30:29;;;;;;;28.23;5.30;;;5.50;99.90;;;;;;6143229;23;20470;-56
2022/01/28 05:32:55;;;;;;;20.87;5.17;;;5.50;99.90;;;;;;6173525;23;20459;-53
2022/01/28 05:35:20;;;;;;;22.33;5.28;;;5.50;99.90;;;;;;6207640;23;20614;-51
2022/01/28 05:37:46;;;;;;;17.52;4.88;;;5.50;99.90;;;;;;6206442;23;20669;-52
2022/01/28 05:40:12;;;;;;;23.70;5.50;;;5.50;99.90;;;;;;6208639;23;20348;-57
2022/01/28 05:42:37;;;;;;;20.27;5.00;;;5.50;99.90;;;;;;6209445;23;20631;-55
2022/01/28 05:45:03;;;;;;;18.57;5.17;;;5.50;99.90;;;;;;6209500;23;20370;-56
2022/01/28 05:47:28;;;;;;;20.20;5.32;;;5.50;99.90;;;;;;6206146;23;20401;-53
2022/01/28 05:49:54;;;;;;;14.97;4.77;;;5.50;99.90;;;;;;6208543;23;20356;-52
2022/01/28 05:52:20;;;;;;;21.65;4.97;;;5.50;99.90;;;;;;6206871;23;20653;-53
2022/01/28 05:54:45;;;;;;;30.67;5.20;;;5.50;99.90;;;;;;6207922;23;20585;-54
2022/01/28 05:57:11;;;;;;;19.00;4.97;;;5.50;99.90;;;;;;6207701;23;20417;-55
2022/01/28 05:59:36;;;;;;;21.67;5.18;;;5.50;99.90;;;;;;6208361;23;20348;-54
2022/01/28 06:02:02;;;;;;;24.67;5.70;;;5.50;99.90;;;;;;6205844;23;20346;-58
2022/01/28 06:04:28;;;;;;;19.70;5.13;;;5.50;99.90;;;;;;6208600;23;20777;-56
2022/01/28 06:06:54;;;;;;;21.77;5.25;;;5.50;99.90;;;;;;6207566;23;20359;-58
2022/01/28 06:09:19;;;;;;;18.00;4.18;;;5.50;99.90;;;;;;6207002;23;20366;-54
2022/01/28 06:11:46;;;;;;;20.63;5.03;;;5.50;99.90;;;;;;6207424;23;20364;-57
2022/01/28 06:14:12;;;;;;;21.45;4.93;;;5.50;99.90;;;;;;6210001;23;20343;-57
2022/01/28 06:16:37;;;;;;;24.58;5.93;;;5.50;99.90;;;;;;6206758;23;20437;-51
2022/01/28 06:19:03;;;;;;;24.60;5.65;;;5.50;99.90;;;;;;6208344;23;20442;-56
2022/01/28 06:21:28;;;;;;;24.70;5.60;;;5.50;99.90;;;;;;6205815;23;20376;-54
2022/01/28 06:23:55;;;;;;;19.27;5.50;;;5.50;99.90;;;;;;6203867;23;20409;-54
2022/01/28 06:26:21;;;;;;;20.20;5.15;;;5.50;99.90;;;;;;6204387;23;20725;-56
2022/01/28 06:28:47;;;;;;;22.90;5.28;;;5.50;99.90;;;;;;6207000;23;20359;-54
2022/01/28 06:31:12;;;;;;;23.83;5.18;;;5.50;99.90;;;;;;6206856;23;20356;-55
2022/01/28 06:33:38;;;;;;;21.57;4.93;;;5.50;99.90;;;;;;6204856;23;20375;-55
2022/01/28 06:36:04;;;;;;;21.27;5.20;;;5.50;99.90;;;;;;6205442;23;20669;-53
2022/01/28 06:38:31;;;;;;;22.20;5.27;;;5.50;99.90;;;;;;6206910;23;20406;-56
2022/01/28 06:40:56;;;;;;;21.98;5.55;;;5.50;99.90;;;;;;6203984;23;20374;-53
2022/01/28 06:43:22;;;;;;;22.08;5.13;;;5.60;99.90;;;;;;6205819;23;20730;-51
2022/01/28 06:45:48;;;;;;;26.10;5.38;;;5.60;99.90;;;;;;6209134;23;20500;-53
2022/01/28 06:48:16;;;;;;;26.30;5.15;;;5.50;99.90;;;;;;6207438;23;20615;-55
2022/01/28 06:50:42;;;;;;;19.35;4.63;;;5.50;99.90;;;;;;6206069;23;20389;-54
2022/01/28 06:53:10;;;;;;;24.50;4.97;;;5.50;99.90;;;;;;6203936;23;20694;-50
2022/01/28 06:55:36;;;;;;;24.55;5.32;;;5.50;99.90;;;;;;6203017;23;20764;-54
2022/01/28 06:58:03;;;;;;;24.38;6.18;;;5.50;99.90;;;;;;6204828;23;20784;-50
2022/01/28 07:00:30;;;;;;;19.67;4.80;;;5.50;99.90;;;;;;6203121;23;20676;-55
2022/01/28 07:02:56;;;;;;;22.13;4.97;;;5.50;99.90;;;;;;6200657;23;20413;-53
2022/01/28 07:05:21;;;;;;;19.20;4.37;;;5.60;99.90;;;;;;6199557;23;20583;-54
2022/01/28 07:07:47;;;;;;;20.73;4.83;;;5.60;99.90;;;;;;6200330;23;20451;-52
2022/01/28 07:10:13;;;;;;;17.95;4.78;;;5.60;99.90;;;;;;6198250;23;20629;-51
2022/01/28 07:12:38;;;;;;;15.85;4.70;;;5.60;99.90;;;;;;6202845;23;20709;-54
2022/01/28 07:15:05;;;;;;;22.00;5.50;;;5.60;99.90;;;;;;6202178;23;20599;-55
2022/01/28 07:17:30;;;;;;;19.23;5.03;;;5.60;99.90;;;;;;6203097;23;20375;-53
2022/01/28 07:19:56;;;;;;;20.97;4.73;;;5.50;99.90;;;;;;6206102;23;20374;-54
2022/01/28 07:22:21;;;;;;;18.75;4.65;;;5.50;99.90;;;;;;6202418;23;20368;-55
2022/01/28 07:24:47;;;;;;;19.90;5.17;;;5.50;99.90;;;;;;6206167;23;20339;-54
2022/01/28 07:27:19;;;;;;;27.17;5.80;;;5.50;99.90;;;;;;6205789;23;20348;-54
2022/01/28 07:29:47;;;;;;;23.90;5.67;;;5.40;99.90;;;;;;6207926;23;20418;-52
2022/01/28 07:32:12;;;;;;;25.15;5.90;;;5.40;99.90;;;;;;6207416;23;20354;-52
2022/01/28 07:34:38;;;;;;;23.53;5.43;;;5.40;99.90;;;;;;6204516;23;20551;-57
2022/01/28 07:37:04;;;;;;;23.20;5.20;;;5.40;99.90;;;;;;6201483;23;20371;-51
2022/01/28 07:39:30;;;;;;;24.13;5.55;;;5.40;99.90;;;;;;6199717;23;20636;-56
2022/01/28 07:41:56;;;;;;;26.13;6.20;;;5.40;99.90;;;;;;6198482;23;20761;-53
2022/01/28 07:44:22;;;;;;;24.75;5.53;;;5.30;99.90;;;;;;6200151;23;20669;-51
2022/01/28 07:46:47;;;;;;;23.10;5.10;;;5.40;99.90;;;;;;6199684;23;20501;-52
2022/01/28 07:49:13;;;;;;;30.33;6.17;;;5.40;99.90;;;;;;6202439;23;20352;-55
2022/01/28 07:51:40;;;;;;;30.02;5.70;;;5.40;99.90;;;;;;6201775;23;20695;-55
2022/01/28 07:54:06;;;;;;;25.77;5.60;;;5.40;99.90;;;;;;6202424;23;20347;-54
2022/01/28 07:56:31;;;;;;;30.57;6.63;;;5.40;99.90;;;;;;6201886;23;20377;-53
2022/01/28 07:58:57;;;;;;;21.60;5.90;;;5.40;99.90;;;;;;6203240;23;20350;-53
2022/01/28 08:01:23;;;;;;;23.07;5.73;;;5.40;99.90;;;;;;6200183;23;20629;-54
2022/01/28 08:03:48;;;;;;;23.90;5.95;;;5.40;99.90;;;;;;6199863;23;20454;-56
2022/01/28 08:06:14;;;;;;;21.90;5.38;;;5.40;99.90;;;;;;6202847;23;20382;-56
2022/01/28 08:08:39;;;;;;;19.07;4.83;;;5.30;99.90;;;;;;6205018;23;20865;-53
2022/01/28 08:11:05;;;;;;;20.93;5.13;;;5.40;99.90;;;;;;6202021;23;20638;-53
2022/01/28 08:13:30;;;;;;;28.95;6.70;;;5.40;99.90;;;;;;6204434;23;20359;-57
2022/01/28 08:15:56;;;;;;;23.67;5.63;;;5.40;99.90;;;;;;6205914;23;20426;-55
2022/01/28 08:18:22;;;;;;;24.25;6.18;;;5.40;99.90;;;;;;6204300;23;20367;-54
2022/01/28 08:20:47;;;;;;;25.33;6.40;;;5.30;99.90;;;;;;6201904;23;20380;-56
2022/01/28 08:23:14;;;;;;;30.23;6.90;;;5.40;99.90;;;;;;6204824;23;20758;-53
2022/01/28 08:25:40;;;;;;;31.55;6.50;;;5.40;99.90;;;;;;6202175;23;20563;-54
2022/01/28 08:28:05;;;;;;;22.15;5.65;;;5.40;99.90;;;;;;6199428;23;20612;-53
2022/01/28 08:30:33;;;;;;;25.17;5.80;;;5.40;99.90;;;;;;6197264;23;20750;-55
2022/01/28 08:32:58;;;;;;;29.10;5.45;;;5.40;99.90;;;;;;6198253;23;20626;-56
2022/01/28 08:35:30;;;;;;;26.50;6.32;;;5.40;99.90;;;;;;6200168;23;20816;-52
2022/01/28 08:37:57;;;;;;;23.65;6.03;;;5.40;99.90;;;;;;6199618;23;20507;-55
2022/01/28 08:40:25;;;;;;;22.70;6.47;;;5.30;99.90;;;;;;6201920;23;20347;-53
2022/01/28 08:42:50;;;;;;;26.75;7.00;;;5.40;99.90;;;;;;6203003;23;20356;-55
2022/01/28 08:45:16;;;;;;;26.60;5.80;;;5.40;99.90;;;;;;6201767;23;20358;-56
2022/01/28 08:47:42;;;;;;;24.92;5.80;;;5.40;99.90;;;;;;6200894;23;20360;-55
2022/01/28 08:50:08;;;;;;;25.27;6.82;;;5.50;99.90;;;;;;6200531;23;20371;-55
2022/01/28 08:52:34;;;;;;;22.88;6.32;;;5.50;99.90;;;;;;6202495;23;20756;-55
2022/01/28 08:55:00;;;;;;;20.67;5.80;;;5.50;99.90;;;;;;6203784;23;20578;-55
2022/01/28 08:57:26;;;;;;;27.33;6.50;;;5.50;99.90;;;;;;6201962;23;20374;-54
2022/01/28 08:59:51;;;;;;;29.97;6.03;;;5.50;99.90;;;;;;6204027;23;20387;-52
2022/01/28 09:02:17;;;;;;;25.73;6.60;;;5.60;99.90;;;;;;6203685;23;20483;-53
2022/01/28 09:04:45;;;;;;;29.25;6.28;;;5.60;99.90;;;;;;6202026;23;20366;-55
2022/01/28 09:07:11;;;;;;;26.70;6.40;;;5.60;99.90;;;;;;6201902;23;20633;-54
2022/01/28 09:09:37;;;;;;;30.80;6.23;;;5.50;99.90;;;;;;6204628;23;20405;-56
2022/01/28 09:12:26;;;;;;;26.03;6.33;;;5.50;99.90;;;;;;6205989;23;20781;-54
2022/01/28 09:14:51;;;;;;;28.63;6.43;;;5.50;99.90;;;;;;6203039;23;20484;-54
2022/01/28 09:17:19;;;;;;;22.00;5.13;;;5.60;99.90;;;;;;6201295;23;20519;-53
2022/01/28 09:19:44;;;;;;;36.40;6.47;;;5.60;99.90;;;;;;6199633;23;20486;-58
2022/01/28 09:22:10;;;;;;;24.80;6.30;;;5.70;99.90;;;;;;6200959;23;20694;-54
2022/01/28 09:24:35;;;;;;;22.45;6.07;;;5.70;99.90;;;;;;6204724;23;20488;-55
2022/01/28 09:27:02;;;;;;;26.33;5.93;;;5.70;99.90;;;;;;6202729;23;20405;-53
2022/01/28 09:29:27;;;;;;;24.93;6.43;;;5.80;99.90;;;;;;6199942;23;20611;-56
2022/01/28 09:31:53;;;;;;;20.27;5.23;;;5.80;99.90;;;;;;6197511;23;20344;-51
2022/01/28 09:34:18;;;;;;;21.00;5.30;;;6.00;99.90;;;;;;6198783;23;20506;-53
2022/01/28 09:36:44;;;;;;;23.80;5.82;;;6.40;99.90;;;;;;6200267;23;20668;-56
2022/01/28 09:39:10;;;;;;;21.15;5.50;;;6.80;99.90;;;;;;6197789;23;20776;-57
2022/01/28 09:41:36;;;;;;;20.87;5.60;;;7.50;99.90;;;;;;6197893;23;20348;-54
2022/01/28 09:44:02;;;;;;;22.92;6.13;;;8.40;99.90;;;;;;6197705;23;20421;-55
2022/01/28 09:46:29;;;;;;;15.40;4.30;;;8.80;99.90;;;;;;6194373;23;20394;-52
2022/01/28 09:48:56;;;;;;;21.80;4.82;;;9.40;99.90;;;;;;6195214;23;20363;-51
2022/01/28 09:51:21;;;;;;;;;;;9.50;99.90;;;;;;6200721;23;20005;-55
2022/01/28 09:53:47;;;;;;;;;;;8.90;99.90;;;;;;6199437;23;19900;-51
2022/01/28 09:56:12;;;;;;;;;;;8.70;99.90;;;;;;6200132;23;19977;-53
2022/01/28 09:58:38;;;;;;;;;;;8.50;99.90;;;;;;6198914;23;19908;-52
2022/01/28 10:01:04;;;;;;;;;;;8.30;99.90;;;;;;6199295;23;19900;-49
2022/01/28 10:03:29;;;;;;;;;;;8.10;99.90;;;;;;6200831;23;19904;-53
2022/01/28 10:05:56;;;;;;;;;;;7.90;99.90;;;;;;6201348;23;20218;-60
2022/01/28 10:08:27;;;;;;;;;;;7.90;99.90;;;;;;6204620;23;19978;-58
2022/01/28 10:11:05;;;;;;;;;;;7.70;99.90;;;;;;6204638;23;20249;-49
2022/01/28 10:13:51;;;;;;;;;;;7.60;99.90;;;;;;6208055;23;19904;-51
2022/01/28 10:16:24;;;;;;;;;;;7.50;99.90;;;;;;6206841;23;19914;-51
2022/01/28 10:18:50;;;;;;;;;;;7.50;99.90;;;;;;6207308;23;19930;-55
2022/01/28 10:21:19;;;;;;;;;;;7.40;99.90;;;;;;6206463;23;19937;-54
2022/01/28 10:24:04;;;;;;;;;;;7.40;99.90;;;;;;6209225;23;19954;-55
2022/01/28 10:26:56;;;;;;;;;;;7.40;99.90;;;;;;6208589;23;20172;-54
2022/01/28 10:29:26;;;;;;;;;;;7.40;99.90;;;;;;6163057;23;19915;-53
2022/01/28 10:31:53;;;;;;;;;;;7.30;99.90;;;;;;6204504;23;19938;-51
2022/01/28 10:34:19;;;;;;;;;;;7.30;99.90;;;;;;6206617;23;20226;-54
2022/01/28 10:36:46;;;;;;;;;;;7.40;99.90;;;;;;6204952;23;20190;-53
2022/01/28 10:39:17;;;;;;;;;;;7.40;99.90;;;;;;6205228;23;19926;-52
2022/01/28 10:41:53;;;;;;;;;;;7.50;99.90;;;;;;6205336;23;20186;-50
2022/01/28 10:44:18;;;;;;;;;;;7.50;99.90;;;;;;6202997;23;19918;-55
2022/01/28 10:46:49;;;;;;;;;;;7.50;99.90;;;;;;6204082;23;20136;-53
2022/01/28 10:49:15;;;;;;;;;;;7.60;99.90;;;;;;6204489;23;20290;-54
2022/01/28 10:51:47;;;;;;;;;;;7.60;99.90;;;;;;6204662;23;19969;-53
2022/01/28 10:54:14;;;;;;;;;;;7.70;99.90;;;;;;6205190;23;19899;-53
2022/01/28 10:56:54;;;;;;;;;;;7.70;99.90;;;;;;6203264;23;19904;-53
2022/01/28 10:59:28;;;;;;;;;;;7.90;99.90;;;;;;6203420;23;20186;-51
2022/01/28 11:01:54;;;;;;;;;;;7.90;99.90;;;;;;6202145;23;19900;-52
2022/01/28 11:04:20;;;;;;;;;;;8.10;99.90;;;;;;6201033;23;19911;-55
2022/01/28 11:06:47;;;;;;;;;;;8.10;99.90;;;;;;6201371;23;19914;-52
2022/01/28 11:09:13;;;;;;;;;;;8.10;99.90;;;;;;6203144;23;20290;-55
2022/01/28 11:11:39;;;;;;;;;;;8.10;99.90;;;;;;6206601;23;19904;-54
2022/01/28 11:14:06;;;;;;;;;;;8.00;99.90;;;;;;6205241;23;20158;-54
2022/01/28 11:16:32;;;;;;;;;;;8.00;99.90;;;;;;6204116;23;20190;-56
2022/01/28 11:18:58;;;;;;;;;;;7.90;99.90;;;;;;6205313;23;19946;-51
2022/01/28 11:21:30;;;;;;;;;;;8.10;99.90;;;;;;6203406;23;20079;-54
2022/01/28 11:23:59;;;;;;;;;;;8.20;99.90;;;;;;6204164;23;20139;-51
2022/01/28 11:26:28;;;;;;;;;;;8.40;99.90;;;;;;6203507;23;20348;-52
2022/01/28 11:28:55;;;;;;;;;;;8.40;99.90;;;;;;6202548;23;19899;-50
2022/01/28 11:31:40;;;;;;;;;;;8.50;99.90;;;;;;6205194;23;19911;-53
2022/01/28 11:34:22;;;;;;;;;;;8.60;99.90;;;;;;6202938;23;19982;-51
2022/01/28 11:36:48;;;;;;;;;;;8.60;99.90;;;;;;6202632;23;19983;-55
2022/01/28 11:39:30;;;;;;;;;;;8.90;99.90;;;;;;6201901;23;19960;-54
2022/01/28 11:42:08;;;;;;;;;;;9.00;99.90;;;;;;6205919;23;19911;-52
2022/01/28 11:44:54;;;;;;;;;;;9.00;99.90;;;;;;6211978;23;19900;-52
2022/01/28 11:47:24;;;;;;;;;;;9.00;99.90;;;;;;6209462;23;19900;-55
2022/01/28 11:49:55;;;;;;;;;;;8.90;99.90;;;;;;6210455;23;19966;-54
2022/01/28 11:52:27;;;;;;;;;;;8.90;99.90;;;;;;6210323;23;19904;-53
2022/01/28 11:54:53;;;;;;;;;;;8.90;99.90;;;;;;6211802;23;19971;-53
2022/01/28 11:57:22;;;;;;;;;;;8.80;99.90;;;;;;6211647;23;19903;-49
2022/01/28 11:59:49;;;;;;;;;;;8.90;99.90;;;;;;6210067;23;19900;-51
2022/01/28 12:02:18;;;;;;;;;;;8.90;99.90;;;;;;6212383;23;19915;-54
2022/01/28 12:04:45;;;;;;;;;;;9.10;99.90;;;;;;6212658;23;20271;-53
2022/01/28 12:07:17;;;;;;;;;;;9.30;99.90;;;;;;6211949;23;20469;-51
2022/01/28 12:09:46;;;;;;;;;;;9.20;99.90;;;;;;6211110;23;19907;-53
2022/01/28 12:12:18;;;;;;;;;;;9.20;99.90;;;;;;6212351;23;19923;-53
2022/01/28 12:15:00;;;;;;;;;;;9.20;99.90;;;;;;6213457;23;19919;-54
2022/01/28 12:17:36;;;;;;;;;;;9.20;99.90;;;;;;6211113;23;19904;-53
2022/01/28 12:20:10;;;;;;;;;;;9.30;99.90;;;;;;6212101;23;19908;-54
2022/01/28 12:22:59;;;;;;;;;;;9.20;99.90;;;;;;6215391;23;19927;-50
2022/01/28 12:25:39;;;;;;;;;;;9.50;99.90;;;;;;6216165;23;19900;-54
2022/01/28 12:28:17;;;;;;;;;;;9.60;99.90;;;;;;6215926;23;19904;-57
2022/01/28 12:31:02;;;;;;;;;;;9.70;99.90;;;;;;6215922;23;20282;-55
2022/01/28 12:33:31;;;;;;;;;;;9.80;99.90;;;;;;6214095;23;20217;-55
2022/01/28 12:36:00;;;;;;;;;;;9.70;99.90;;;;;;6212858;23;19899;-53
2022/01/28 12:38:30;;;;;;;;;;;9.80;99.90;;;;;;6212380;23;20466;-54
2022/01/28 12:41:04;;;;;;;;;;;9.80;99.90;;;;;;6211620;23;19918;-54
2022/01/28 12:43:33;;;;;;;;;;;10.10;99.90;;;;;;6212461;23;19900;-54
2022/01/28 12:46:09;;;;;;;;;;;10.20;99.90;;;;;;6209367;23;19927;-55
2022/01/28 12:48:44;;;;;;;;;;;10.30;99.90;;;;;;6211745;23;19916;-53
2022/01/28 12:51:11;;;;;;;;;;;10.20;99.90;;;;;;6211535;23;19907;-56
2022/01/28 12:53:44;;;;;;;;;;;10.30;99.90;;;;;;6212206;23;19907;-53
2022/01/28 12:56:12;;;;;;;;;;;10.30;99.90;;;;;;6211018;23;19914;-56
2022/01/28 12:58:51;;;;;;;;;;;10.40;99.90;;;;;;6210605;23;19904;-53
2022/01/28 13:01:18;;;;;;;;;;;10.60;99.90;;;;;;6209328;23;19966;-57
2022/01/28 13:06:59;;;;;;;;;;;10.50;99.90;;;;;;6221053;23;19962;-53
2022/01/28 13:09:14;;;;;;;;;;;10.70;99.90;;;;;;6212294;23;20286;-54
2022/01/28 13:11:41;;;;;;;;;;;10.50;99.90;;;;;;6213094;23;19904;-55
2022/01/28 13:14:07;;;;;;;;;;;10.40;99.90;;;;;;6214495;23;19900;-51
2022/01/28 13:16:33;;;;;;;;;;;10.30;99.90;;;;;;6212214;23;20020;-54
2022/01/28 13:19:00;;;;;;;;;;;10.50;99.90;;;;;;6209960;23;19900;-53
2022/01/28 13:21:26;;;;;;;;;;;10.60;99.90;;;;;;6209679;23;19943;-54
2022/01/28 13:24:11;;;;;;;;;;;10.50;99.90;;;;;;6209864;23;20193;-55
2022/01/28 13:26:51;;;;;;;;;;;10.20;99.90;;;;;;6211608;23;19900;-54
2022/01/28 13:29:17;;;;;;;;;;;9.90;99.90;;;;;;6212045;23;19903;-51
2022/01/28 13:31:42;;;;;;;;;;;9.70;99.90;;;;;;6211394;23;19910;-57
2022/01/28 13:34:10;;;;;;;;;;;9.50;99.90;;;;;;6214045;23;20221;-56
2022/01/28 13:36:46;;;;;;;;;;;9.50;99.90;;;;;;6209557;23;19904;-54
2022/01/28 13:39:20;;;;;;;;;;;9.50;99.90;;;;;;6214202;23;19904;-55
2022/01/28 13:41:50;;;;;;;;;;;9.40;99.90;;;;;;6214635;23;19900;-56
2022/01/28 13:44:23;;;;;;;;;;;9.50;99.90;;;;;;6214361;23;19908;-54
2022/01/28 13:46:55;;;;;;;;;;;9.20;99.90;;;;;;6212326;23;20278;-52
2022/01/28 13:49:23;;;;;;;;;;;9.10;99.90;;;;;;6213910;23;19971;-53
2022/01/28 13:51:49;;;;;;;;;;;9.00;99.90;;;;;;6214142;23;20136;-55
2022/01/28 13:54:20;;;;;;;;;;;8.80;99.90;;;;;;6213879;23;19900;-56
2022/01/28 13:56:47;;;;;;;;;;;8.90;99.90;;;;;;6213222;23;19903;-56
2022/01/28 13:59:17;;;;;;;;;;;8.70;99.90;;;;;;6214853;23;19904;-56
2022/01/28 14:01:44;;;;;;;;;;;8.70;99.90;;;;;;6211176;23;19908;-54
2022/01/28 14:04:18;;;;;;;;;;;8.60;99.90;;;;;;6210087;23;19899;-54
2022/01/28 14:06:44;;;;;;;;;;;8.80;99.90;;;;;;6209659;23;20007;-53
2022/01/28 14:09:12;;;;;;;;;;;8.70;99.90;;;;;;6208730;23;19971;-56
2022/01/28 14:11:39;;;;;;;;;;;8.70;99.90;;;;;;6209423;23;19928;-50
2022/01/28 14:14:16;;;;;;;;;;;8.60;99.90;;;;;;6208234;23;19904;-54
2022/01/28 14:16:43;;;;;;;;;;;8.50;99.90;;;;;;6210656;23;19939;-53
2022/01/28 14:19:10;;;;;;;;;;;8.50;99.90;;;;;;6207781;23;19927;-53
2022/01/28 14:21:36;;;;;;;;;;;8.40;99.90;;;;;;6204304;23;19918;-55
2022/01/28 14:24:06;;;;;;;;;;;8.30;99.90;;;;;;6206499;23;21253;-53
2022/01/28 14:26:31;;;;;;;;;;;8.20;99.90;;;;;;6206142;23;20225;-55
2022/01/28 14:31:22;;;;;;;;;;;8.30;99.90;;;;;;6215442;23;19947;-55